空港情報

日本の空港の気象及び、管制情報です。
気象情報はより詳細な情報が取得できる「AVIATION WEATER CENTER」 から取得しているため、VATSIMの気象情報と若干のタイムラグが生じることがあります。

VRCのフィールド設定用空港一覧はこちらをご覧ください。

RJCG Sapporo Control

RJCW / Wakkanai

NO RADAR

RADIO

08/26 2200x45

民間 civil

過去5時間に発表されたMETARがありません。

RJER / Rishiri

NO RADAR

REMOTE

25/07 1800x45

民間 civil

過去5時間に発表されたMETARがありません。

RJEB / Monbetsu

NO RADAR

REMOTE

32/14 2000x45

民間 civil

過去5時間に発表されたMETARがありません。

RJCM / Memanbetsu
VMC

NO RADAR

TOWER

36/18 2500x45

民間 civil

9999

240@4KT

29.68

RJCM 151100Z 24004KT 190V290 9999 -SHSN FEW020 SCT030 BKN040 M01/M08 Q1005

RJEC / Asahikawa
VMC

NO RADAR

TOWER

34/16 2500x60

民間 civil

9999

230@11KT

29.70

RJEC 151100Z 23011KT 200V260 9999 FEW015 SCT050 M03/M08 Q1006

RJCN / Nakashibetsu

NO RADAR

RADIO

08/26 2000x45

民間 civil

過去5時間に発表されたMETARがありません。

RJCK / Kushiro
VMC

NO RADAR

TOWER

17/35 2500x45

民間 civil

9999

280@9KT

29.68

RJCK 151100Z 28009KT 250V310 9999 FEW030 M00/M08 Q1005

RJCO / Sapporo
VMC

RJCO_APP

TOWER

14/32 1500x30

共用 dual

9999

300@7KT

29.79

RJCO 151100Z 30007KT 9999 -SHSN FEW015 BKN040 BKN070 M00/M05 Q1009

RJCJ / Chitose

RJCC_APP

TOWER

36R/18L 3000x60
36L/18R 2700x45

自衛隊 military

過去5時間に発表されたMETARがありません。

RJCC / NewChitose
VMC

RJCC_APP

TOWER

01L/19R 3000x60
01R/19L 3000x60

民間 civil

9999

080@4KT

29.79

RJCC 151430Z 08004KT 9999 -SHSN FEW010 BKN040 M02/M04 Q1009 RMK 1ST010 7CU040 A2981

RJCB / Obihiro
IMC

NO RADAR

TOWER

35/17 2500x45

民間 civil

1500

190@4KT

29.70

RJCB 151139Z 19004KT 1500 R35/P2000N BR FEW001 BKN008 M05/M05 Q1006 RMK 1ST001 6ST008 A2972

RJEO / Okushiri

NO RADAR

REMOTE

12/30 1500x45

民間 civil

過去5時間に発表されたMETARがありません。

RJCH / Hakodate
VMC

RJCH_APP

TOWER

12/30 3000x45

民間 civil

9999

260@18G28KT

29.82

RJCH 151107Z 26018G28KT 9999 FEW030 SCT045 BKN060 03/M02 Q1010 RMK 1CU030 3CU045 5CU060 A2984

RJSA / Aomori
VMC

NO RADAR

TOWER

24/06 3000x60

民間 civil

9999

240@16KT

29.91

RJSA 151200Z 24016KT 9999 -SHSNRA FEW005 SCT020 BKN040 03/M02 Q1013

RJSO / Ominato
VMC

RJSM_APP

TOWER

04/22 600x45

自衛隊 military

9999

260@15G30KT

29.85

RJSO 151106Z 26015G30KT 220V280 9999 FEW030 BKN045 BKN070 05/M04 Q1011 RMK 2CU030 5CU045 7AC070 A2986

RJSM / Misawa
VMC

RJSM_APP

TOWER

10/28 3050x45

共用 dual

9999

250@12KT

29.88

RJSM 151400Z 25012KT 9999 FEW020 BKN030 05/03 Q1012

RJSH / Hachinohe

RJSM_APP

TOWER

25/07 2250x45

自衛隊 military

過去5時間に発表されたMETARがありません。

RJSK / Akita
VMC

NO RADAR

TOWER

10/28 2500x60

民間 civil

9999

310@9KT

29.97

RJSK 151200Z 31009KT 9999 FEW010 SCT030 BKN040 06/02 Q1015

RJSI / Hanamaki
VMC

NO RADAR

RADIO

20/02 2500x45

民間 civil

9999

200@5KT

29.91

RJSI 151000Z 20005KT 9999 -SHRA FEW010 BKN030 BKN040 07/05 Q1013

RJSR / Odate-Noshiro
VMC

NO RADAR

REMOTE

11/29 2000x45

民間 civil

9999

250@7KT

29.94

RJSR 151000Z 25007KT 9999 -SHRA FEW005 SCT020 BKN035 05/02 Q1014

RJTG Tokyo Control

RJSY / Shonai
VMC

NO RADAR

RADIO

09/27 2000x45

民間 civil

9999

320@10KT

29.97

RJSY 151200Z 32010KT 270V010 9999 -SHRA FEW010 SCT020 BKN035 10/07 Q1015

RJSC / Yamagata
VMC

NO RADAR

RADIO

01/19 2000x45

民間 civil

9999

220@4KT

29.94

RJSC 151000Z 22004KT 9999 -SHRA FEW010 SCT030 BKN040 08/08 Q1014

RJST / Matsushima

RJSS_APP

TOWER

07/25 2071x46
15/33 1500x46

自衛隊 military

過去5時間に発表されたMETARがありません。

RJSS / Sendai
VMC

RJSS_APP

TOWER

27/09 3000x45
12/30 1200x45

民間 civil

9999

020@3KT

29.94

RJSS 151200Z 02003KT 330V070 9999 FEW030 BKN050 11/05 Q1014

RJSD / Sado
VMC

NO RADAR

REMOTE

10/28 890x25

民間 civil

9999

000@1KT

29.97

RJSD 151400Z AUTO VRB01KT 9999 FEW005 SCT040 BKN050 //////TCU 10/09 Q1015

RJSN / Niigata
VMC

RJSN_APP

TOWER

10/28 2500x45
04/22 1314x45

民間 civil

6000

250@10KT

29.97

RJSN 151217Z 25010KT 6000 SHRA FEW010 SCT015 BKN030 12/10 Q1015 RMK 1CU010 3CU015 7CU030 A2999

RJSF / Fukushima
VMC

NO RADAR

RADIO

01/19 2500x60

民間 civil

9999

170@4KT

29.97

RJSF 151100Z 17004KT 9999 FEW015 07/04 Q1015

RJAH / Ibaraki/Hyakuri
VMC

RJAH_APP

TOWER

03L/21R 2700x45
03R/21L 2700x45

共用 dual

9999

350@3KT

29.94

RJAH 151400Z 35003KT 9999 FEW030 04/03 Q1014

RJTT / Tokyo
VMC

RJTT_APP

TOWER

34LR/16RL 3000x60
04/22&05/23 2500x60

民間 civil

9999

270@2KT

29.94

RJTT 151430Z 27002KT 9999 FEW030 12/07 Q1014 NOSIG RMK 1CU030 A2996

RJAA / Narita
VMC

RJTT_APP

TOWER

34L/16R 4000x60
34R/16L 2500x60

民間 civil

9999

200@2KT

29.94

RJAA 151430Z 20002KT 9999 MIFG NSC 06/05 Q1014 NOSIG RMK A2996

RJTL / Shimofusa

RJTT_APP

TOWER

19/01 2250x45

自衛隊 military

過去5時間に発表されたMETARがありません。

RJTE / Tateyama

RJTT_APP

TOWER

09/27 300x45

自衛隊 military

過去5時間に発表されたMETARがありません。

RJTO / Oshima

NO RADAR

RADIO

03/21 1800x45

民間 civil

過去5時間に発表されたMETARがありません。

RJTK / Kisarazu

NO RADAR

TOWER

02/20 1830x45

自衛隊 military

過去5時間に発表されたMETARがありません。

RJAN / Niijima

NO RADAR

REMOTE

11/29 800x25

自衛隊 military

過去5時間に発表されたMETARがありません。

RJAZ / Kozushima

NO RADAR

REMOTE

11/29 800x25

民間 civil

過去5時間に発表されたMETARがありません。

RJTH / Hachijojima

NO RADAR

RADIO

26/08 2000x45

民間 civil

過去5時間に発表されたMETARがありません。

RJTF / Chofu

NO RADAR

Flight Service

35/17 800x30

民間 civil

過去5時間に発表されたMETARがありません。

RJTQ / Miyake

NO RADAR

REMOTE

02/20 1200x30

民間 civil

過去5時間に発表されたMETARがありません。

RJTC / Tachikawa

NO RADAR

TOWER

01/19 900x45

自衛隊 military

過去5時間に発表されたMETARがありません。

RJTA / Atsugi

NO RADAR

TOWER

01/19 2438x45

自衛隊 military

過去5時間に発表されたMETARがありません。

RJTU / Utsunomiya

RJTY_APP

TOWER

01/19 1700x45

自衛隊 military

過去5時間に発表されたMETARがありません。

RJTJ / Iruma

RJTY_APP

TOWER

17/35 2000x45

自衛隊 military

過去5時間に発表されたMETARがありません。

RJTY / Yokota
VMC

RJTY_APP

TOWER

18/36 3353x60

自衛隊 military

9999

290@3KT

30.01

RJTY 151356Z AUTO 29003KT 10SM CLR 09/06 A3001 RMK AO2 SLPNO T00880059 FZRANO $

RJAF / Matsumoto

NO RADAR

RADIO

18/36 2000x45

民間 civil

過去5時間に発表されたMETARがありません。

RJNS / Shizuoka
VMC

NO RADAR

RADIO

30/12 2500x60

民間 civil

9999

310@4KT

29.97

RJNS 151200Z 31004KT 290V350 9999 FEW030 11/06 Q1015

RJNY / Yaizu-Shizuhama

NO RADAR

TOWER

27/09 1500x45

自衛隊 military

過去5時間に発表されたMETARがありません。

RJNH / Hamamatsu

RJNH_APP

TOWER

09/27 2550x60

自衛隊 military

過去5時間に発表されたMETARがありません。

RJGG / Chubu
VMC

RJGG_APP

TOWER

36/18 3500x60

民間 civil

9999

350@13KT

30.06

RJGG 151430Z 35013KT 9999 FEW030 12/04 Q1018 NOSIG

RJNA / Nagoya

RJGG_APP

TOWER

34/16 2740x45

民間 civil

過去5時間に発表されたMETARがありません。

RJNG / Gifu

RJGG_APP

TOWER

28/10 2710x46

自衛隊 military

過去5時間に発表されたMETARがありません。

RJOE / Akeno

RJOE_APP

TOWER

13/31 500x30
04/22 500x30

自衛隊 military

過去5時間に発表されたMETARがありません。

RJNK / Komatsu
VMC

RJNK_APP

TOWER

06/24 2700x45

共用 dual

8000

190@5KT

30.06

RJNK 151400Z 19005KT 8000 -SHRA FEW020 SCT030 BKN050 11/07 Q1018

RJNW / Noto
VMC

NO RADAR

RADIO

25/07 2000x45

民間 civil

9999

230@10KT

30.00

RJNW 151000Z 23010KT 9999 FEW030 SCT040 BKN050 11/06 Q1016

RJNT / Toyama
VMC

NO RADAR

TOWER

20/02 2000x45

民間 civil

9999

170@7KT

30.03

RJNT 151200Z 17007KT 130V200 9999 VCSH FEW025 BKN100 10/03 Q1017

RJNF / Fukui

NO RADAR

REMOTE

18/36 1200x30

民間 civil

過去5時間に発表されたMETARがありません。

RJBD / Nanki-Shirahama
VMC

NO RADAR

RADIO

15/33 2000x45

民間 civil

9999

340@8KT

30.09

RJBD 151000Z 34008KT 9999 FEW035 12/04 Q1019

RJOY / Yao
VMC

RJBB_APP

TOWER

27/09 1490x45
13/31 1200x30

民間 civil

9999

160@3KT

30.12

RJOY 151000Z 16003KT 080V210 CAVOK 11/04 Q1020

RJOO / Osaka
VMC

RJBB_APP

TOWER

32L/14R 3000x60
32R/14L 1830x45

民間 civil

9999

310@4KT

30.12

RJOO 151100Z 31004KT CAVOK 10/04 Q1020 RMK A3013

RJOB / Okayama
VMC

RJBB_APP

TOWER

07/25 3000x45

民間 civil

9999

290@2KT

30.12

RJOB 151200Z 29002KT CAVOK 07/03 Q1020

RJBB / Kansai
VMC

RJBB_APP

TOWER

06R/24L 3500x60
06L/24R 4000x60

民間 civil

9999

150@4KT

30.12

RJBB 151430Z AUTO 15004KT 9999 NCD 12/08 Q1020 NOSIG

RJBE / Kobe
VMC

RJBB_APP

TOWER

09/27 2500x60

民間 civil

9999

340@7KT

30.12

RJBE 151200Z 34007KT CAVOK 11/02 Q1020

RJBT / Tajima

NO RADAR

REMOTE

01/19 1200x30

民間 civil

過去5時間に発表されたMETARがありません。

RJOR / Tottori
VMC

NO RADAR

RADIO

10/28 2000x45

民間 civil

9999

150@8KT

30.09

RJOR 151200Z 15008KT 9999 FEW025 09/04 Q1019

RJNO / Oki

NO RADAR

REMOTE

07/25 2000x45

民間 civil

過去5時間に発表されたMETARがありません。

RJOH / Miho
VMC

RJOH_APP

TOWER

25/07 2500x45

共用 dual

9999

180@6KT

30.09

RJOH 151400Z 18006KT 9999 FEW050 09/05 Q1019

RJOC / Izumo
VMC

RJOH_APP

RADIO

07/25 2000x45

共用 dual

9999

170@4KT

30.09

RJOC 151100Z 17004KT 9999 FEW030 11/04 Q1019

RJDG Fukuoka Control

RJOT / Takamatsu
VMC

RJBB_APP

TOWER

26/08 2500x60

民間 civil

9999

150@6KT

30.12

RJOT 151200Z 15006KT CAVOK 07/03 Q1020

RJOK / Kochi
VMC

RJBB_APP

TOWER

32/14 2500x45

民間 civil

9999

360@7KT

30.09

RJOK 151100Z 36007KT CAVOK 11/02 Q1019

RJOS / Tokushima
VMC

RJOS_APP

TOWER

29/11 2500x45

共用 dual

9999

280@10KT

30.12

RJOS 151400Z 28010KT 9999 FEW030 09/05 Q1020

RJOA / Hiroshima
VMC

RJOA_APP

TOWER

10/28 3000x60

民間 civil

9999

310@3KT

30.12

RJOA 151300Z 31003KT CAVOK 08/M01 Q1020

RJBH / Hiroshimanishi

NO RADAR

Flight Service

04/22 1800x45

民間 civil

過去5時間に発表されたMETARがありません。

RJOI / Iwakuni
VMC

RJOI_APP

TOWER

02/20 2440x60

共用 dual

9999

300@8KT

30.15

RJOI 151355Z 30008KT 9999 FEW030 09/04 A3015 RMK SLP209 T00890044

RJOM / Matsuyama
VMC

RJOI_APP

TOWER

14/32 2500x45

民間 civil

9999

110@7KT

30.12

RJOM 151200Z 11007KT CAVOK 09/06 Q1020

RJOZ / Ozuki

RJFZ_APP

TOWER

35/17 1201x61
12/30 899x46

自衛隊 military

過去5時間に発表されたMETARがありません。

RJOF / Hofu

RJFZ_APP

TOWER

30/12 1180x60
01/19 1480x45

自衛隊 military

過去5時間に発表されたMETARがありません。

RJDC / Yamaguchi-Ube
VMC

RJFZ_APP

RADIO

07/25 2500x45

民間 civil

9999

000@2KT

30.12

RJDC 151200Z VRB02KT CAVOK 10/04 Q1020

RJFR / Kitakyushu
VMC

RJFZ_APP

TOWER

18/36 2500x60

民間 civil

9999

210@5KT

30.12

RJFR 151400Z 21005KT CAVOK 11/07 Q1020

RJFZ / Tsuiki

RJFZ_APP

TOWER

25/07 2399x46

自衛隊 military

過去5時間に発表されたMETARがありません。

RJOW / Iwami
VMC

NO RADAR

REMOTE

11/29 2000x45

民間 civil

9999

170@5KT

30.12

RJOW 151000Z 17005KT 9999 FEW050 09/06 Q1020

RJDT / Tsushima
VMC

NO RADAR

REMOTE

32/14 1900x45

民間 civil

9999

220@4KT

30.12

RJDT 151100Z 22004KT 170V260 9999 FEW040 11/M00 Q1020

RJFF / Fukuoka
VMC

RJFF_APP

TOWER

16/34 2800x60

民間 civil

9999

150@5KT

30.12

RJFF 151430Z AUTO 15005KT 9999 NCD 08/05 Q1020 NOSIG RMK A3014

RJFS / Saga
VMC

RJFF_APP

RADIO

29/11 2000x45

民間 civil

9999

030@5KT

30.15

RJFS 151400Z 03005KT CAVOK 07/04 Q1021

RJFA / Ashiya

RJFF_APP

TOWER

12/30 1640x46

自衛隊 military

過去5時間に発表されたMETARがありません。

RJDB / Iki

RJFF_APP

REMOTE

20/02 1200x30

民間 civil

過去5時間に発表されたMETARがありません。

RJFO / Oita
VMC

RJFO_APP

TOWER

01/19 3000x45

民間 civil

9999

270@5KT

30.12

RJFO 151300Z 27005KT CAVOK 08/02 Q1020

RJFU / Nagasaki
VMC

RJFU_APP

TOWER

32/14 3000x60

民間 civil

9999

100@3KT

30.12

RJFU 151200Z 10003KT CAVOK 10/07 Q1020

RJDU / Omura

RJFU_APP

TOWER

18/36 1200x30

自衛隊 military

過去5時間に発表されたMETARがありません。

RJFE / Fukue
VMC

NO RADAR

RADIO

03/21 2000x45

民間 civil

9999

030@4KT

30.12

RJFE 151000Z 03004KT CAVOK 09/06 Q1020

RJDO / Ojika

NO RADAR

REMOTE

03/21 800x30

民間 civil

過去5時間に発表されたMETARがありません。

RJDK / Kamigoto
VMC

NO RADAR

REMOTE

17/35 800x30

民間 civil

9999

000@2KT

30.12

RJDK 151400Z AUTO VRB02KT 9999 NCD 13/07 Q1020

RJDA / Amakusa

NO RADAR

Flight Service

31/13 1000x30

民間 civil

過去5時間に発表されたMETARがありません。

RJFT / Kumamoto
VMC

RJFT_APP

TOWER

07/25 3000x45

民間 civil

9999

060@5KT

30.15

RJFT 151200Z 06005KT CAVOK 07/04 Q1021

RJFN / Nyutabaru

RJFM_APP

TOWER

28/10 2701x46

自衛隊 military

過去5時間に発表されたMETARがありません。

RJFM / Miyazaki
VMC

RJFM_APP

TOWER

27/09 2500x45

民間 civil

9999

290@8KT

30.12

RJFM 151200Z 29008KT 9999 FEW030 10/06 Q1020

RJFK / Kagoshima
VMC

RJFK_APP

TOWER

34/16 3000x45

民間 civil

9999

350@6KT

30.12

RJFK 151200Z 35006KT 9999 FEW030 08/03 Q1020 RMK 1CU030 A3013

RJFY / Kanoya
VMC

RJFY_APP

TOWER

26L/08R 2250x45
26R/08L 1200x40

自衛隊 military

9999

000@0KT

30.12

RJFY 150948Z 00000KT 9999 FEW030 12/07 Q1020 RMK 1CU030 A3013

RJFG / Tanegashima

NO RADAR

RADIO

31/13 2000x45

民間 civil

過去5時間に発表されたMETARがありません。

RJFC / Yakushima

NO RADAR

REMOTE

14/32 1500x45

民間 civil

過去5時間に発表されたMETARがありません。

RJBG Kobe Control

ROAH / Naha
VMC

ROAH_APP

TOWER

36/18 3000x45

共用 dual

9999

030@11KT

30.03

ROAH 151430Z 03011KT 9999 FEW040 21/16 Q1017 RMK 1SC040 A3005

RORA / Aguni

ROAH_APP

REMOTE

01/19 800x25

民間 civil

過去5時間に発表されたMETARがありません。

ROKJ / Kumejima

ROAH_APP

REMOTE

03/21 2000x45

民間 civil

過去5時間に発表されたMETARがありません。

RODN / Kadena
VMC

ROAH_APP

TOWER

05L/23R 3688x91
05R/23L 3688x61

自衛隊 military

9999

040@7KT

30.07

RODN 151356Z AUTO 04007KT 10SM CLR 17/15 A3007 RMK AO2 SLPNO T01720145 $

ROTM / Futenma
VMC

ROAH_APP

TOWER

06/24 2740x45

自衛隊 military

9999

030@6KT

30.08

ROTM 151356Z 03006KT 9SM CLR 18/15 A3008 RMK AO2 SLP172 T01830150 $

RORS / Shimojishima
VMC

RORS_APP

TOWER

17/35 3000x60

民間 civil

9999

070@13KT

30.00

RORS 151000Z 07013KT 9999 SCT035 22/14 Q1016

ROMY / Miyako
VMC

RORS_APP

TOWER

04/22 2000x45

民間 civil

9999

040@11KT

30.03

ROMY 151100Z 04011KT 9999 FEW035 21/14 Q1017

ROIG / New Ishigaki
VMC

RORS_APP

TOWER

22/04 2000x45

民間 civil

9999

050@12KT

30.00

ROIG 151100Z 05012KT 9999 SCT034 BKN042 22/16 Q1016

RORT / Tarama

RORS_APP

REMOTE

36/18 1500x45

民間 civil

過去5時間に発表されたMETARがありません。

RJKA / Amami
VMC

NO RADAR

RADIO

03/21 2000x45

民間 civil

9999

340@5KT

30.06

RJKA 151000Z 34005KT 9999 FEW025 17/14 Q1018

RJKI / Kikai
VMC

NO RADAR

REMOTE

07/25 1200x30

民間 civil

9999

100@5KT

30.09

RJKI 151400Z AUTO 10005KT 9999 FEW034 BKN036 BKN042 20/15 Q1019

RJKN / Tokunoshima

NO RADAR

REMOTE

19/01 2000x45

民間 civil

過去5時間に発表されたMETARがありません。

RJKB / Okierabu

NO RADAR

REMOTE

04/22 1350x45

民間 civil

過去5時間に発表されたMETARがありません。

RORY / Yoron
VMC

NO RADAR

REMOTE

32/14 1320x30

民間 civil

9999

030@10KT

30.06

RORY 151400Z AUTO 03010KT 350V060 9999 FEW029 21/16 Q1018

RORK / Kitadaito
VMC

NO RADAR

REMOTE

03/21 1500x45

民間 civil

9999

040@17KT

30.00

RORK 151400Z AUTO 04017KT 9999 FEW024 SCT028 BKN034 23/18 Q1016

ROMD / Minami-daito
VMC

NO RADAR

REMOTE

02/20 1500x45

民間 civil

9999

040@14KT

30.00

ROMD 151400Z AUTO 04014KT 9999 FEW022 SCT023 BKN026 23/18 Q1016

ROYN / Yonaguni
VMC

NO RADAR

REMOTE

26/08 2000x45

民間 civil

9999

060@14KT

30.03

ROYN 151400Z AUTO 06014KT 9999 FEW037 OVC050 23/16 Q1017

RORH / Hateruma

NO RADAR

REMOTE

02/20 800x25

民間 civil

過去5時間に発表されたMETARがありません。

ROKR / Kerama

NO RADAR

REMOTE

02/20 800x25

民間 civil

過去5時間に発表されたMETARがありません。